createdAt,value
2024-02-19T07:20:41.181Z,13.78
2024-02-19T07:21:41.139Z,14.01
2024-02-19T07:22:41.196Z,13.86
2024-02-19T07:23:41.083Z,13.86
2024-02-19T07:24:41.096Z,14.18
2024-02-19T07:25:41.101Z,13.83
2024-02-19T07:26:41.056Z,13.86
2024-02-19T07:27:41.101Z,14.13
2024-02-19T07:28:41.043Z,14.13
2024-02-19T07:29:41.022Z,14.20
2024-02-19T07:30:41.044Z,14.10
2024-02-19T07:31:41.012Z,13.98
2024-02-19T07:32:41.116Z,14.08
2024-02-19T07:33:41.153Z,14.18
2024-02-19T07:34:44.171Z,13.96
2024-02-19T07:35:40.968Z,14.03
2024-02-19T07:36:41.047Z,13.93
2024-02-19T07:37:40.947Z,13.98
2024-02-19T07:38:40.889Z,13.98
2024-02-19T07:39:40.938Z,14.05
2024-02-19T07:40:40.983Z,13.73
2024-02-19T07:41:40.896Z,14.13
2024-02-19T07:42:40.948Z,14.03
2024-02-19T07:43:40.842Z,14.10
2024-02-19T07:44:40.845Z,13.88
2024-02-19T07:45:40.892Z,13.86
2024-02-19T07:46:40.829Z,13.83
2024-02-19T07:47:40.884Z,13.96
2024-02-19T07:48:41.176Z,14.08
2024-02-19T07:49:40.994Z,14.15
2024-02-19T07:50:40.792Z,13.96
2024-02-19T07:51:40.876Z,14.05
2024-02-19T07:52:40.781Z,14.05
2024-02-19T07:53:40.753Z,14.18
2024-02-19T07:54:40.783Z,14.20
2024-02-19T07:55:40.679Z,13.96
2024-02-19T07:56:40.711Z,14.03
2024-02-19T07:57:40.794Z,14.18
2024-02-19T07:58:40.656Z,13.93
2024-02-19T07:59:40.750Z,13.86
2024-02-19T08:00:40.756Z,13.96
2024-02-19T08:01:40.740Z,13.88
2024-02-19T08:02:40.627Z,14.23
2024-02-19T08:03:40.740Z,13.88
2024-02-19T08:04:40.747Z,14.05
2024-02-19T08:05:40.620Z,13.98
2024-02-19T08:06:40.647Z,13.91
2024-02-19T08:07:40.692Z,13.71
2024-02-19T08:08:40.577Z,13.83
2024-02-19T08:09:40.657Z,14.08
2024-02-19T08:10:40.514Z,13.81
2024-02-19T08:11:40.611Z,13.71
2024-02-19T08:12:43.188Z,13.63
2024-02-19T08:13:40.525Z,13.98
2024-02-19T08:14:40.441Z,13.93
2024-02-19T08:15:40.529Z,14.20
2024-02-19T08:16:41.890Z,13.86
2024-02-19T08:17:40.506Z,14.25
2024-02-19T08:18:40.514Z,14.13
2024-02-19T08:19:40.427Z,13.91
2024-02-19T08:20:40.390Z,13.88
2024-02-19T08:21:41.062Z,14.10
2024-02-19T08:22:41.949Z,14.08
2024-02-19T08:23:40.366Z,14.25
2024-02-19T08:24:40.486Z,14.18
2024-02-19T08:25:40.315Z,14.25
2024-02-19T08:26:40.334Z,13.91
2024-02-19T08:27:40.382Z,14.18
2024-02-19T08:28:40.325Z,13.93
2024-02-19T08:29:40.414Z,14.10
2024-02-19T08:30:40.273Z,13.86
2024-02-19T08:31:40.307Z,14.20
2024-02-19T08:32:40.319Z,14.13
2024-02-19T08:33:40.363Z,14.10
2024-02-19T08:34:40.380Z,13.63
2024-02-19T08:35:40.618Z,14.25
2024-02-19T08:36:40.287Z,14.18
2024-02-19T08:37:40.226Z,14.08
2024-02-19T08:38:40.252Z,14.10
2024-02-19T08:39:42.545Z,14.08
2024-02-19T08:40:40.210Z,14.15
2024-02-19T08:41:40.105Z,13.81
2024-02-19T08:42:40.140Z,13.83
2024-02-19T08:43:40.112Z,13.81
2024-02-19T08:44:40.077Z,14.33
2024-02-19T08:45:40.157Z,14.13
2024-02-19T08:46:40.051Z,14.05
2024-02-19T08:47:40.101Z,14.01
2024-02-19T08:48:40.158Z,14.01
2024-02-19T08:49:40.084Z,14.13
2024-02-19T08:50:40.139Z,14.28
2024-02-19T08:51:40.024Z,13.91
2024-02-19T08:52:40.033Z,14.13
2024-02-19T08:53:40.039Z,13.81
2024-02-19T08:54:40.044Z,13.98
2024-02-19T08:55:39.994Z,13.98
2024-02-19T08:56:39.940Z,14.20
2024-02-19T08:57:39.966Z,14.30
2024-02-19T08:58:39.881Z,13.93
2024-02-19T08:59:39.944Z,14.13
2024-02-19T09:00:39.960Z,14.10
2024-02-19T09:01:39.998Z,13.63
2024-02-19T09:02:39.939Z,13.66
2024-02-19T09:03:39.916Z,14.13
2024-02-19T09:04:39.886Z,13.73
2024-02-19T09:05:39.856Z,13.91
2024-02-19T09:06:39.915Z,13.96
2024-02-19T09:07:39.876Z,14.15
2024-02-19T09:08:39.759Z,14.25
2024-02-19T09:09:39.787Z,13.96
2024-02-19T09:10:39.829Z,14.08
2024-02-19T09:11:39.761Z,13.96
2024-02-19T09:12:39.811Z,14.35
2024-02-19T09:13:39.768Z,14.05
2024-02-19T09:14:39.744Z,14.10
2024-02-19T09:15:39.828Z,13.88
2024-02-19T09:16:39.701Z,13.91
2024-02-19T09:17:39.704Z,13.93
2024-02-19T09:18:39.809Z,13.83
2024-02-19T09:19:39.852Z,14.35
2024-02-19T09:20:39.671Z,13.88
2024-02-19T09:21:39.635Z,14.10
2024-02-19T09:22:39.705Z,13.93
2024-02-19T09:23:39.592Z,14.25
2024-02-19T09:24:39.674Z,13.98
2024-02-19T09:25:39.584Z,13.91
2024-02-19T09:26:39.563Z,14.10
2024-02-19T09:27:39.630Z,13.86
2024-02-19T09:28:39.525Z,14.03
2024-02-19T09:29:39.552Z,14.18
2024-02-19T09:30:39.505Z,13.88
2024-02-19T09:31:39.502Z,13.91
2024-02-19T09:32:39.730Z,14.10
2024-02-19T09:33:39.550Z,13.98
2024-02-19T09:34:39.639Z,21.17
2024-02-19T09:35:39.483Z,21.46
2024-02-19T09:36:39.508Z,21.32
2024-02-19T09:37:39.398Z,20.97
2024-02-19T09:38:39.437Z,20.72
2024-02-19T09:39:39.707Z,19.51
2024-02-19T09:40:39.439Z,13.91
2024-02-19T09:41:39.382Z,13.91
2024-02-19T09:42:39.334Z,13.96
2024-02-19T09:43:39.322Z,14.23
2024-02-19T09:44:39.356Z,13.93
2024-02-19T09:45:39.426Z,14.15
2024-02-19T09:46:41.115Z,14.13
2024-02-19T09:47:39.380Z,14.08
2024-02-19T09:48:39.350Z,13.96
2024-02-19T09:49:39.390Z,13.81
2024-02-19T09:50:39.263Z,14.05
2024-02-19T09:51:41.374Z,14.05
2024-02-19T09:52:39.332Z,14.01
2024-02-19T09:53:39.197Z,13.98
2024-02-19T09:54:39.256Z,19.64
2024-02-19T09:55:39.177Z,19.91
2024-02-19T09:56:39.200Z,20.13
2024-02-19T09:57:39.174Z,20.35
2024-02-19T09:58:40.362Z,20.55
2024-02-19T09:59:39.105Z,20.45
2024-02-19T10:00:39.179Z,20.55
2024-02-19T10:01:39.222Z,20.75
2024-02-19T10:02:39.334Z,20.45
2024-02-19T10:03:39.070Z,20.60
2024-02-19T10:04:39.156Z,20.87
2024-02-19T10:05:39.245Z,20.62
2024-02-19T10:06:39.199Z,20.11
2024-02-19T10:07:39.096Z,20.50
2024-02-19T10:08:39.023Z,20.62
2024-02-19T10:09:39.045Z,20.87
2024-02-19T10:10:39.016Z,20.87
2024-02-19T10:11:39.077Z,21.07
2024-02-19T10:12:38.962Z,20.92
2024-02-19T10:13:38.966Z,21.00
2024-02-19T10:14:39.054Z,20.80
2024-02-19T10:15:38.958Z,20.97
2024-02-19T10:16:38.975Z,21.09
2024-02-19T10:17:38.974Z,21.09
2024-02-19T10:18:38.910Z,21.14
2024-02-19T10:19:38.944Z,21.22
2024-02-19T10:20:38.840Z,21.24
2024-02-19T10:21:38.877Z,21.37
2024-02-19T10:22:38.826Z,21.61
2024-02-19T10:23:38.812Z,21.46
2024-02-19T10:24:38.911Z,21.59
2024-02-19T10:25:38.825Z,21.19
2024-02-19T10:26:38.769Z,21.04
2024-02-19T10:27:38.795Z,21.29
2024-02-19T10:28:38.816Z,21.27
2024-02-19T10:29:38.807Z,21.24
2024-02-19T10:30:38.728Z,21.39
2024-02-19T10:31:38.756Z,21.59
2024-02-19T10:32:38.826Z,21.29
2024-02-19T10:33:38.886Z,21.27
2024-02-19T10:34:38.715Z,21.59
2024-02-19T10:35:38.788Z,21.64
2024-02-19T10:36:38.682Z,21.56
2024-02-19T10:37:38.680Z,21.37
2024-02-19T10:38:38.671Z,21.39
2024-02-19T10:39:38.636Z,21.29
2024-02-19T10:40:38.630Z,21.34
2024-02-19T10:41:38.616Z,21.39
2024-02-19T10:42:38.599Z,21.44
2024-02-19T10:43:38.553Z,21.24
2024-02-19T10:44:38.556Z,21.17
2024-02-19T10:45:38.685Z,21.17
2024-02-19T10:46:38.636Z,21.39
2024-02-19T10:47:38.617Z,21.37
2024-02-19T10:48:38.624Z,21.44
2024-02-19T10:49:38.591Z,21.24
2024-02-19T10:50:38.530Z,21.49
2024-02-19T10:51:38.449Z,21.54
2024-02-19T10:52:38.455Z,21.64
2024-02-19T10:53:38.479Z,21.56
2024-02-19T10:54:38.414Z,21.54
2024-02-19T10:55:49.621Z,21.64
2024-02-19T10:56:39.645Z,21.66
2024-02-19T10:57:38.461Z,21.61
2024-02-19T10:58:38.378Z,21.37
2024-02-19T10:59:38.396Z,21.44
2024-02-19T11:00:38.355Z,21.37
2024-02-19T11:01:38.477Z,21.39
2024-02-19T11:02:38.316Z,21.49
2024-02-19T11:03:38.312Z,21.54
2024-02-19T11:04:38.339Z,21.54
2024-02-19T11:05:38.388Z,21.46
2024-02-19T11:06:38.265Z,21.49
2024-02-19T11:07:38.279Z,21.64
2024-02-19T11:08:38.272Z,21.76
2024-02-19T11:09:38.316Z,21.91
2024-02-19T11:10:38.341Z,21.76
2024-02-19T11:11:38.306Z,21.69
2024-02-19T11:12:38.220Z,21.84
2024-02-19T11:13:38.216Z,21.79
2024-02-19T11:14:38.290Z,21.79
2024-02-19T11:15:38.175Z,21.64
2024-02-19T11:16:38.132Z,21.69
2024-02-19T11:17:38.278Z,21.39
2024-02-19T11:18:38.196Z,21.44
2024-02-19T11:19:38.302Z,21.81
2024-02-19T11:20:38.083Z,21.66
2024-02-19T11:21:38.090Z,21.69
2024-02-19T11:22:38.076Z,21.64
2024-02-19T11:23:38.050Z,21.59
2024-02-19T11:24:38.133Z,21.37
2024-02-19T11:25:38.059Z,21.44
2024-02-19T11:26:38.112Z,21.42
2024-02-19T11:27:38.106Z,21.46
2024-02-19T11:28:38.135Z,21.29
2024-02-19T11:29:44.340Z,21.19
2024-02-19T11:30:39.758Z,21.32
2024-02-19T11:31:38.009Z,21.46
2024-02-19T11:32:38.064Z,21.51
2024-02-19T11:33:37.957Z,21.49
2024-02-19T11:34:38.067Z,21.59
2024-02-19T11:35:38.016Z,21.44
2024-02-19T11:36:37.909Z,21.66
2024-02-19T11:37:37.928Z,21.46
2024-02-19T11:38:37.870Z,21.46
2024-02-19T11:39:37.891Z,21.56
2024-02-19T11:40:37.890Z,21.42
2024-02-19T11:41:37.941Z,21.42
2024-02-19T11:42:37.845Z,21.24
2024-02-19T11:43:37.872Z,21.34
2024-02-19T11:44:37.853Z,21.22
2024-02-19T11:45:37.834Z,21.44
2024-02-19T11:46:37.807Z,21.46
2024-02-19T11:47:37.760Z,21.12
2024-02-19T11:48:37.961Z,21.29
2024-02-19T11:49:37.841Z,21.27
2024-02-19T11:50:37.741Z,21.14
2024-02-19T11:51:37.862Z,21.61
2024-02-19T11:52:37.765Z,21.51
2024-02-19T11:53:37.709Z,21.37
2024-02-19T11:54:37.729Z,21.49
2024-02-19T11:55:37.727Z,21.51
2024-02-19T11:56:37.667Z,21.49
2024-02-19T11:57:37.737Z,21.44
2024-02-19T11:58:37.752Z,21.61
2024-02-19T11:59:37.706Z,21.64
2024-02-19T12:00:37.645Z,21.71
2024-02-19T12:01:37.671Z,21.56
2024-02-19T12:02:37.606Z,21.71
2024-02-19T12:03:37.544Z,21.79
2024-02-19T12:04:37.658Z,21.84
2024-02-19T12:05:37.647Z,21.71
2024-02-19T12:06:37.578Z,21.88
2024-02-19T12:07:37.623Z,21.81
2024-02-19T12:08:37.685Z,21.61
2024-02-19T12:09:37.521Z,21.29
2024-02-19T12:10:37.539Z,21.71
2024-02-19T12:11:37.501Z,21.69
2024-02-19T12:12:37.469Z,21.59
2024-02-19T12:13:37.607Z,21.71
2024-02-19T12:14:37.418Z,21.66
2024-02-19T12:15:37.475Z,21.69
2024-02-19T12:16:37.468Z,21.74
2024-02-19T12:17:37.441Z,21.56
2024-02-19T12:18:37.464Z,21.61
2024-02-19T12:19:37.527Z,21.56
2024-02-19T12:20:37.516Z,21.49
2024-02-19T12:21:37.393Z,21.64
2024-02-19T12:22:37.350Z,21.49
2024-02-19T12:23:37.381Z,21.61
2024-02-19T12:24:37.306Z,21.54
2024-02-19T12:25:37.379Z,21.37
2024-02-19T12:26:37.248Z,21.46
2024-02-19T12:27:37.257Z,21.32
2024-02-19T12:28:37.281Z,21.59
2024-02-19T12:29:37.258Z,21.42
2024-02-19T12:30:37.219Z,21.54
2024-02-19T12:31:37.249Z,21.44
2024-02-19T12:32:37.370Z,21.51
2024-02-19T12:33:37.255Z,21.39
2024-02-19T12:34:37.233Z,21.64
2024-02-19T12:35:39.844Z,21.61
2024-02-19T12:36:37.520Z,21.37
2024-02-19T12:37:37.218Z,21.37
2024-02-19T12:38:37.101Z,21.44
2024-02-19T12:39:37.108Z,21.56
2024-02-19T12:40:37.314Z,21.54
2024-02-19T12:41:37.091Z,21.56
2024-02-19T12:42:37.128Z,21.42
2024-02-19T12:43:37.171Z,21.24
2024-02-19T12:44:37.037Z,21.37
2024-02-19T12:45:37.044Z,21.69
2024-02-19T12:46:37.063Z,21.79
2024-02-19T12:47:37.221Z,21.64
2024-02-19T12:48:37.225Z,21.69
2024-02-19T12:49:39.804Z,21.69
2024-02-19T12:50:37.162Z,21.76
2024-02-19T12:51:37.299Z,21.81
2024-02-19T12:52:37.057Z,22.01
2024-02-19T12:53:36.954Z,22.03
2024-02-19T12:54:36.993Z,21.79
2024-02-19T12:55:36.919Z,22.21
2024-02-19T12:56:36.914Z,21.79
2024-02-19T12:57:36.895Z,21.44
2024-02-19T12:58:36.936Z,21.56
2024-02-19T12:59:36.877Z,21.46
2024-02-19T13:00:36.858Z,21.56
2024-02-19T13:01:36.994Z,21.49
2024-02-19T13:02:37.015Z,21.66
2024-02-19T13:03:36.805Z,21.76
2024-02-19T13:04:36.914Z,21.93
2024-02-19T13:05:36.821Z,21.66
2024-02-19T13:06:36.801Z,21.59
2024-02-19T13:07:36.852Z,21.61
2024-02-19T13:08:36.754Z,21.46
2024-02-19T13:09:36.771Z,21.39
2024-02-19T13:10:36.824Z,21.32
2024-02-19T13:11:36.899Z,21.34
2024-02-19T13:12:36.696Z,21.24
2024-02-19T13:13:36.769Z,21.32
2024-02-19T13:14:36.678Z,20.92
2024-02-19T13:15:36.681Z,20.85
2024-02-19T13:16:36.725Z,20.60
2024-02-19T13:17:42.952Z,20.55
2024-02-19T13:18:37.816Z,20.43
2024-02-19T13:19:36.954Z,20.28
2024-02-19T13:20:37.450Z,20.40
2024-02-19T13:21:36.943Z,20.50
2024-02-19T13:22:37.780Z,20.48
2024-02-19T13:23:38.141Z,20.53
2024-02-19T13:24:40.215Z,20.48
2024-02-19T13:25:40.199Z,20.08
2024-02-19T13:26:40.015Z,20.08
2024-02-19T13:27:36.522Z,19.93
2024-02-19T13:28:36.520Z,19.83
2024-02-19T13:29:36.492Z,20.03
2024-02-19T13:30:36.506Z,19.93
2024-02-19T13:31:36.462Z,20.23
2024-02-19T13:32:36.503Z,20.25
2024-02-19T13:33:36.468Z,19.98
2024-02-19T13:34:36.535Z,19.44
2024-02-19T13:35:36.504Z,19.09
2024-02-19T13:36:36.366Z,18.57
2024-02-19T13:37:36.457Z,18.99
2024-02-19T13:38:36.371Z,19.32
2024-02-19T13:39:36.354Z,19.51
2024-02-19T13:40:36.436Z,19.37
2024-02-19T13:41:36.340Z,18.75
2024-02-19T13:42:36.357Z,19.24
2024-02-19T13:43:36.502Z,19.24
2024-02-19T13:44:37.648Z,19.56
2024-02-19T13:45:36.318Z,19.71
2024-02-19T13:46:36.386Z,20.13
2024-02-19T13:47:38.527Z,20.48
2024-02-19T13:48:36.315Z,20.53
2024-02-19T13:49:36.329Z,20.48
2024-02-19T13:50:36.389Z,20.11
2024-02-19T13:51:36.197Z,19.81
2024-02-19T13:52:36.357Z,19.34
2024-02-19T13:53:36.199Z,18.95
2024-02-19T13:54:36.195Z,18.92
2024-02-19T13:55:36.180Z,19.32
2024-02-19T13:56:36.150Z,19.14
2024-02-19T13:57:36.137Z,18.87
2024-02-19T13:58:36.112Z,18.11
2024-02-19T13:59:36.110Z,17.56
2024-02-19T14:00:36.083Z,18.01
2024-02-19T14:01:39.414Z,18.35
2024-02-19T14:02:37.178Z,18.82
2024-02-19T14:03:36.098Z,19.19
2024-02-19T14:04:36.117Z,19.27
2024-02-19T14:05:36.005Z,19.59
2024-02-19T14:06:36.290Z,20.11
2024-02-19T14:07:36.028Z,20.21
2024-02-19T14:08:36.025Z,19.98
2024-02-19T14:09:35.959Z,19.29
2024-02-19T14:10:36.077Z,18.30
2024-02-19T14:11:36.152Z,19.02
2024-02-19T14:12:35.913Z,19.29
2024-02-19T14:13:46.172Z,19.19
2024-02-19T14:14:36.919Z,17.88
2024-02-19T14:15:35.878Z,13.93
2024-02-19T14:16:35.988Z,13.96
2024-02-19T14:17:35.918Z,14.67
2024-02-19T14:18:35.878Z,14.45
2024-02-19T14:19:35.916Z,14.18
2024-02-19T14:20:35.858Z,14.01
2024-02-19T14:21:35.828Z,14.89
2024-02-19T14:22:35.832Z,14.01
2024-02-19T14:23:35.776Z,14.03
2024-02-19T14:24:35.837Z,13.96
2024-02-19T14:25:35.864Z,14.28
2024-02-19T14:26:35.730Z,14.38
2024-02-19T14:27:35.726Z,14.50
2024-02-19T14:28:35.765Z,14.35
2024-02-19T14:29:35.699Z,14.67
2024-02-19T14:30:35.712Z,14.55
2024-02-19T14:31:35.757Z,14.47
2024-02-19T14:32:35.706Z,13.73
2024-02-19T14:33:35.675Z,14.33
2024-02-19T14:34:35.714Z,14.38
2024-02-19T14:35:35.753Z,14.45
2024-02-19T14:36:35.780Z,14.45
2024-02-19T14:37:35.625Z,14.28
2024-02-19T14:38:35.599Z,13.93
2024-02-19T14:39:35.576Z,14.43
2024-02-19T14:40:35.659Z,14.47
2024-02-19T14:41:35.595Z,14.05
2024-02-19T14:42:35.536Z,14.15
2024-02-19T14:43:35.694Z,14.28
2024-02-19T14:44:35.563Z,14.20
2024-02-19T14:45:35.525Z,14.67
2024-02-19T14:46:36.245Z,13.71
2024-02-19T14:47:35.586Z,13.91
2024-02-19T14:48:35.636Z,14.10
2024-02-19T14:49:35.765Z,14.13
2024-02-19T14:50:35.619Z,14.62
2024-02-19T14:51:35.454Z,14.03
2024-02-19T14:52:35.477Z,14.15
2024-02-19T14:53:35.417Z,14.18
2024-02-19T14:54:35.500Z,14.33
2024-02-19T14:55:35.460Z,14.10
2024-02-19T14:56:35.411Z,14.45
2024-02-19T14:57:35.392Z,14.10
2024-02-19T14:58:35.399Z,14.30
2024-02-19T14:59:35.352Z,14.01
2024-02-19T15:00:35.370Z,14.52
2024-02-19T15:01:35.406Z,13.73
2024-02-19T15:02:35.300Z,14.23
2024-02-19T15:03:35.369Z,14.15
2024-02-19T15:04:35.393Z,14.08
2024-02-19T15:05:35.348Z,14.18
2024-02-19T15:06:35.334Z,14.43
2024-02-19T15:07:35.308Z,14.38
2024-02-19T15:08:35.237Z,14.33
2024-02-19T15:09:35.228Z,14.35
2024-02-19T15:10:35.334Z,13.98
2024-02-19T15:11:35.217Z,14.57
2024-02-19T15:12:35.201Z,14.10
2024-02-19T15:13:35.228Z,14.47
2024-02-19T15:14:35.162Z,14.35
2024-02-19T15:15:35.162Z,14.08
2024-02-19T15:16:35.223Z,14.38
2024-02-19T15:17:35.372Z,14.33
2024-02-19T15:18:35.210Z,13.91
2024-02-19T15:19:35.214Z,14.03
2024-02-19T15:20:35.169Z,13.78
2024-02-19T15:21:35.119Z,14.03
2024-02-19T15:22:35.122Z,14.25
2024-02-19T15:23:35.054Z,14.35
2024-02-19T15:24:35.066Z,14.08
2024-02-19T15:25:35.696Z,13.93
2024-02-19T15:26:35.008Z,13.78
2024-02-19T15:27:35.002Z,14.33
2024-02-19T15:28:34.984Z,14.23
2024-02-19T15:29:34.970Z,13.81
2024-02-19T15:30:34.933Z,14.20
2024-02-19T15:31:38.919Z,14.05
2024-02-19T15:32:35.985Z,13.98
2024-02-19T15:33:34.901Z,13.93
2024-02-19T15:34:35.056Z,13.88
2024-02-19T15:35:34.960Z,14.01
2024-02-19T15:36:34.876Z,14.15
2024-02-19T15:37:35.035Z,14.08
2024-02-19T15:38:34.896Z,14.23
2024-02-19T15:39:34.877Z,14.05
2024-02-19T15:40:34.874Z,14.20
2024-02-19T15:41:34.881Z,14.30
2024-02-19T15:42:34.837Z,14.13
2024-02-19T15:43:34.810Z,13.76
2024-02-19T15:44:34.760Z,13.96
2024-02-19T15:45:34.821Z,13.81
2024-02-19T15:46:34.907Z,13.81
2024-02-19T15:47:34.968Z,13.68
2024-02-19T15:48:34.752Z,14.08
2024-02-19T15:49:34.929Z,14.05
2024-02-19T15:50:34.734Z,13.86
2024-02-19T15:51:34.751Z,13.81
2024-02-19T15:52:34.779Z,13.93
2024-02-19T15:53:34.651Z,13.83
2024-02-19T15:54:34.635Z,13.71
2024-02-19T15:55:34.774Z,13.93
2024-02-19T15:56:34.640Z,13.96
2024-02-19T15:57:34.840Z,13.78
2024-02-19T15:58:34.603Z,14.01
2024-02-19T15:59:34.587Z,13.76
2024-02-19T16:00:34.596Z,13.78
2024-02-19T16:01:34.748Z,13.66
2024-02-19T16:02:34.540Z,13.78
2024-02-19T16:03:34.591Z,13.83
2024-02-19T16:04:34.570Z,13.86
2024-02-19T16:05:34.596Z,13.98
2024-02-19T16:06:34.545Z,13.86
2024-02-19T16:07:34.557Z,13.81
2024-02-19T16:08:34.486Z,13.86
2024-02-19T16:09:34.487Z,13.71
2024-02-19T16:10:34.461Z,13.81
2024-02-19T16:11:34.578Z,13.98
2024-02-19T16:12:34.434Z,13.81
2024-02-19T16:13:34.483Z,13.68
2024-02-19T16:14:34.380Z,14.01
2024-02-19T16:15:34.352Z,13.86
2024-02-19T16:16:34.552Z,13.83
2024-02-19T16:17:34.454Z,13.78
2024-02-19T16:18:34.460Z,13.98
2024-02-19T16:19:34.576Z,13.81
2024-02-19T16:20:34.309Z,13.81
2024-02-19T16:21:34.383Z,13.98
2024-02-19T16:22:34.309Z,13.78
2024-02-19T16:23:34.344Z,13.96
2024-02-19T16:24:34.234Z,13.81
2024-02-19T16:25:34.234Z,13.71
2024-02-19T16:26:34.230Z,13.68
2024-02-19T16:27:34.202Z,13.78
2024-02-19T16:28:34.252Z,13.88
2024-02-19T16:29:34.223Z,13.81
2024-02-19T16:30:34.178Z,12.79
2024-02-19T16:31:34.394Z,12.28
2024-02-19T16:32:34.192Z,12.60
2024-02-19T16:33:34.269Z,12.33
2024-02-19T16:34:34.272Z,12.10
2024-02-19T16:35:34.292Z,12.25
2024-02-19T16:36:34.099Z,12.23
2024-02-19T16:37:34.084Z,12.23
2024-02-19T16:38:34.097Z,12.08
2024-02-19T16:39:34.074Z,12.33
2024-02-19T16:40:34.108Z,12.20
2024-02-19T16:41:34.016Z,12.03
2024-02-19T16:42:34.021Z,12.18
2024-02-19T16:43:34.046Z,12.18
2024-02-19T16:44:34.037Z,12.15
2024-02-19T16:45:33.992Z,12.05
2024-02-19T16:46:34.034Z,12.00
2024-02-19T16:47:33.995Z,12.10
2024-02-19T16:48:34.020Z,11.98
2024-02-19T16:49:34.117Z,11.07
2024-02-19T16:50:33.916Z,10.28
2024-02-19T16:51:33.956Z,9.51
2024-02-19T16:52:34.072Z,9.21
2024-02-19T16:53:33.883Z,9.21
2024-02-19T16:54:33.995Z,9.34
2024-02-19T16:55:33.982Z,9.29
2024-02-19T16:56:33.887Z,8.92
2024-02-19T16:57:33.811Z,8.62
2024-02-19T16:58:34.106Z,8.13
2024-02-19T16:59:33.827Z,7.41
2024-02-19T17:00:33.933Z,6.99
2024-02-19T17:01:33.982Z,6.62
2024-02-19T17:02:33.792Z,6.10
2024-02-19T17:03:33.836Z,5.63
2024-02-19T17:04:33.856Z,5.53
2024-02-19T17:05:33.864Z,4.96
2024-02-19T17:06:33.856Z,4.45
2024-02-19T17:07:33.935Z,4.03
2024-02-19T17:08:33.798Z,3.33
2024-02-19T17:09:33.666Z,2.74
2024-02-19T17:10:33.808Z,2.05
2024-02-19T17:11:33.812Z,1.58
2024-02-19T17:12:33.654Z,1.38
2024-02-19T17:13:33.671Z,1.09
2024-02-19T17:14:33.645Z,0.74
2024-02-19T17:15:33.616Z,0.84
2024-02-19T17:16:33.688Z,0.64
2024-02-19T17:17:33.578Z,0.52
2024-02-19T17:18:33.839Z,0.32
2024-02-19T17:19:33.760Z,0.32
2024-02-19T17:20:33.612Z,0.37
2024-02-19T17:21:33.567Z,0.22
2024-02-19T17:22:33.549Z,0.20
2024-02-19T17:23:33.517Z,0.27
2024-02-19T17:24:33.570Z,0.20
2024-02-19T17:25:33.628Z,0.12
2024-02-19T17:26:33.488Z,0.00
2024-02-19T17:27:33.458Z,0.15
2024-02-19T17:28:33.518Z,0.00
2024-02-19T17:29:33.463Z,0.00
2024-02-19T17:30:33.401Z,0.10
2024-02-19T17:31:33.505Z,0.22
2024-02-19T17:32:33.387Z,0.25
2024-02-19T17:33:33.472Z,0.10
2024-02-19T17:34:33.459Z,0.00
2024-02-19T17:35:35.410Z,0.00
2024-02-19T17:36:33.366Z,0.00
2024-02-19T17:37:33.425Z,0.00
2024-02-19T17:38:33.301Z,0.07
2024-02-19T17:39:33.289Z,0.10
2024-02-19T17:40:33.379Z,0.00
2024-02-19T17:41:33.445Z,0.00
2024-02-19T17:42:33.725Z,0.05
2024-02-19T17:43:33.348Z,0.00
2024-02-19T17:44:33.295Z,0.15
2024-02-19T17:45:33.306Z,0.07
2024-02-19T17:46:33.340Z,0.00
2024-02-19T17:47:33.225Z,0.00
2024-02-19T17:48:33.325Z,0.00
2024-02-19T17:49:33.391Z,0.05
2024-02-19T17:50:33.157Z,0.07
2024-02-19T17:51:33.183Z,0.00
2024-02-19T17:52:33.241Z,0.00
2024-02-19T17:53:33.134Z,0.00
2024-02-19T17:54:33.101Z,0.10
2024-02-19T17:55:33.157Z,0.00
2024-02-19T17:56:33.073Z,0.05
2024-02-19T17:57:33.080Z,0.05
2024-02-19T17:58:33.199Z,0.05
2024-02-19T17:59:33.036Z,0.05
2024-02-19T18:00:33.033Z,0.07
2024-02-19T18:01:33.116Z,0.20
2024-02-19T18:02:32.997Z,0.00
2024-02-19T18:03:33.122Z,0.00
2024-02-19T18:04:33.020Z,0.15
2024-02-19T18:05:33.077Z,0.07
2024-02-19T18:06:33.633Z,0.05
2024-02-19T18:07:33.029Z,0.07
2024-02-19T18:08:32.954Z,0.07
2024-02-19T18:09:32.906Z,0.00
2024-02-19T18:10:33.134Z,0.00
2024-02-19T18:11:32.986Z,0.07
2024-02-19T18:12:32.912Z,0.00
2024-02-19T18:13:33.024Z,0.00
2024-02-19T18:14:32.881Z,0.00
2024-02-19T18:15:32.850Z,0.12
2024-02-19T18:16:32.952Z,0.00
2024-02-19T18:17:32.929Z,0.05
2024-02-19T18:18:32.981Z,0.00
2024-02-19T18:19:33.031Z,0.05
2024-02-19T18:20:32.780Z,0.05
2024-02-19T18:21:32.742Z,0.00
2024-02-19T18:22:32.935Z,0.00
2024-02-19T18:23:32.730Z,0.07
2024-02-19T18:24:32.763Z,0.05
2024-02-19T18:25:32.768Z,0.05
2024-02-19T18:26:32.741Z,0.05
2024-02-19T18:27:32.704Z,0.07
2024-02-19T18:28:32.813Z,0.07
2024-02-19T18:29:32.667Z,0.07
2024-02-19T18:30:32.781Z,0.05
2024-02-19T18:31:32.662Z,0.12
2024-02-19T18:32:32.761Z,0.00
2024-02-19T18:33:32.700Z,0.00
2024-02-19T18:34:32.856Z,0.02
2024-02-19T18:35:32.607Z,0.00
2024-02-19T18:36:32.615Z,0.05
2024-02-19T18:37:32.593Z,0.07
2024-02-19T18:38:32.559Z,0.10
2024-02-19T18:39:33.013Z,0.00
2024-02-19T18:40:32.603Z,0.00
2024-02-19T18:41:32.667Z,0.00
2024-02-19T18:42:32.550Z,0.05
2024-02-19T18:43:32.600Z,0.07
2024-02-19T18:44:32.489Z,0.10
2024-02-19T18:45:32.542Z,0.00
2024-02-19T18:46:32.511Z,0.07
2024-02-19T18:47:32.550Z,0.07
2024-02-19T18:48:32.437Z,0.00
2024-02-19T18:49:32.456Z,0.00
2024-02-19T18:50:32.536Z,0.00
2024-02-19T18:51:32.368Z,0.07
2024-02-19T18:52:32.439Z,0.07
2024-02-19T18:53:32.437Z,0.00
2024-02-19T18:54:32.707Z,0.00
2024-02-19T18:55:32.473Z,0.15
2024-02-19T18:56:32.327Z,0.07
2024-02-19T18:57:32.372Z,0.00
2024-02-19T18:58:32.329Z,0.07
2024-02-19T18:59:32.558Z,0.07
2024-02-19T19:00:32.469Z,0.00
2024-02-19T19:01:32.366Z,0.00
2024-02-19T19:02:32.241Z,0.07
2024-02-19T19:03:32.262Z,0.22
2024-02-19T19:04:32.533Z,0.05
2024-02-19T19:05:32.387Z,0.00
2024-02-19T19:06:32.250Z,0.00
2024-02-19T19:07:32.338Z,0.00
2024-02-19T19:08:32.215Z,0.00
2024-02-19T19:09:32.181Z,0.07
2024-02-19T19:10:32.224Z,0.12
2024-02-19T19:11:32.163Z,0.00
2024-02-19T19:12:32.164Z,0.07
2024-02-19T19:13:32.216Z,0.00
2024-02-19T19:14:32.109Z,0.22
2024-02-19T19:15:32.113Z,0.00
2024-02-19T19:16:32.161Z,0.00
2024-02-19T19:17:32.168Z,0.07
2024-02-19T19:18:32.165Z,0.00
2024-02-19T19:19:32.241Z,0.10
2024-02-19T19:20:32.096Z,0.00
2024-02-19T19:21:32.043Z,0.00
2024-02-19T19:22:32.105Z,0.00
2024-02-19T19:23:31.983Z,0.00
2024-02-19T19:24:31.957Z,0.20
2024-02-19T19:25:32.051Z,0.05
2024-02-19T19:26:31.955Z,0.00
2024-02-19T19:27:31.918Z,0.07
2024-02-19T19:28:32.003Z,0.07
2024-02-19T19:29:31.887Z,0.00
2024-02-19T19:30:31.954Z,0.05
2024-02-19T19:31:32.044Z,0.05
2024-02-19T19:32:31.908Z,0.00
2024-02-19T19:33:31.882Z,0.07
2024-02-19T19:34:31.971Z,0.07
2024-02-19T19:35:31.879Z,0.05
2024-02-19T19:36:31.874Z,0.07
2024-02-19T19:37:31.953Z,0.07
2024-02-19T19:38:31.767Z,0.00
2024-02-19T19:39:31.792Z,0.05
2024-02-19T19:40:31.907Z,0.20
2024-02-19T19:41:31.750Z,0.17
2024-02-19T19:42:31.717Z,0.07
2024-02-19T19:43:31.830Z,0.07
2024-02-19T19:44:31.713Z,0.07
2024-02-19T19:45:31.735Z,0.07
2024-02-19T19:46:31.758Z,0.00
2024-02-19T19:47:31.701Z,0.15
2024-02-19T19:48:31.750Z,0.00
2024-02-19T19:49:31.781Z,0.00
2024-02-19T19:50:31.654Z,0.07
2024-02-19T19:51:31.638Z,0.00
2024-02-19T19:52:33.815Z,0.07
2024-02-19T19:53:31.706Z,0.00
2024-02-19T19:54:31.596Z,0.00
2024-02-19T19:55:31.631Z,0.05
2024-02-19T19:56:31.618Z,0.05
2024-02-19T19:57:31.874Z,0.07
2024-02-19T19:58:33.073Z,0.00
2024-02-19T19:59:31.571Z,0.00
2024-02-19T20:00:31.516Z,0.07
2024-02-19T20:01:31.639Z,0.07
2024-02-19T20:02:31.468Z,0.07
2024-02-19T20:03:31.478Z,0.00
2024-02-19T20:04:31.551Z,0.05
2024-02-19T20:05:31.524Z,0.05
2024-02-19T20:06:31.655Z,0.00
2024-02-19T20:07:31.440Z,0.07
2024-02-19T20:08:31.423Z,0.07
2024-02-19T20:09:31.391Z,0.07
2024-02-19T20:10:31.503Z,0.07
2024-02-19T20:11:31.469Z,0.07
2024-02-19T20:12:31.339Z,0.07
2024-02-19T20:13:31.466Z,0.00
2024-02-19T20:14:31.307Z,0.07
2024-02-19T20:15:31.314Z,0.05
2024-02-19T20:16:31.429Z,0.00
2024-02-19T20:17:31.280Z,0.07
2024-02-19T20:18:31.370Z,0.05
2024-02-19T20:19:31.341Z,0.00